Airport ICAO


19:14 UTC

18°C

Few clouds


An affordable passengers' Moving Map for your aircraft. Made for the iPad and the iPhone
More information here

LFMC Le Cannet


Le Luc FRANCE   VFR


METAR LFMC 171900Z AUTO 02004KT 350V050 9999 FEW054 18/16 Q1014 0h14min





NOTAMS

OPEN